Etusivu
METAR-TAF:

METAR-TAF

Lentoasemat :

Savannakhet, Laos

Leveyspiiri: 16-33-24N, Pituuspiiri: 104-45-34E, korkeus merenpinnasta: 155 m

Tämänhetkinen sää

Tämä raportti tehtiin 27 minuuttia sitten, kello 07.00 UTC
Tuuli 4 kn etelästä
Lämpötila 33°C
Kosteus 59%
Ilmanpaine 1009 hPa
Näkyvyys: 8000 m
Hajanaisia pilviä 2000 ft:n korkeudessa
Hajanaisia pilviä 10000 ft:n korkeudessa

METAR: VLSK 260700Z 18004KT 8000 SCT020 SCT100 33/24 Q1009 NOSIG

Aika: 14:27 (07:27 UTC)

Sääennuste

Tämä raportti tehtiin 2 tuntia ja 27 minuuttia sitten, kello 05.00 UTC
Ennuste voimassa 26. päivästä klo 06 UTC - 27. päivään klo 06 UTC
Tuuli 4 kn lounaasta
Näkyvyys: 8000 m
Hajanaisia pilviä 2000 ft:n korkeudessa
Muutamia pilviä 5000 ft:n korkeudessa
Hajanaisia pilviä 10000 ft:n korkeudessa

TAF: VLSK 260500Z 2606/2706 22004KT 8000 SCT020 FEW050 SCT100

Säähavainnot ja -ennusteet yli 4000 lentoasemalta (METAR- ja TAF-raportit).

Käytössä olevat sääasemat on merkitty karttaan keltaisilla ja punaisilla pisteillä.

Aseta hiiri pisteen päälle nähdäksesi sääaseman nimen.

Klikkaa sitten nähdäksesi säähavainnot ja -ennusteet.

Kartan vaihtaminen: klikkaa mustalla rastilla varustettuja vihreitä pisteitä, niin voit zoomata sisään; viivalla varustettua vihreää pistettä, niin voit zoomata ulos tai vihreitä nuolia, niin pääset viereisille kartoille.


METAR-TAF: